createdAt,value
2022-09-13T00:00:59.825Z,14.24
2022-09-13T00:03:27.151Z,14.25
2022-09-13T00:05:53.820Z,14.28
2022-09-13T00:08:20.375Z,14.28
2022-09-13T00:10:47.532Z,14.30
2022-09-13T00:13:16.091Z,14.33
2022-09-13T00:15:45.245Z,14.34
2022-09-13T00:18:11.968Z,14.38
2022-09-13T00:20:38.642Z,14.42
2022-09-13T00:23:05.251Z,14.44
2022-09-13T00:25:31.847Z,14.45
2022-09-13T00:27:58.442Z,14.47
2022-09-13T00:30:24.974Z,14.47
2022-09-13T00:32:51.474Z,14.49
2022-09-13T00:35:18.022Z,14.49
2022-09-13T00:37:44.623Z,14.49
2022-09-13T00:40:11.366Z,14.47
2022-09-13T00:42:38.161Z,14.44
2022-09-13T00:45:10.841Z,14.41
2022-09-13T00:47:43.368Z,14.38
2022-09-13T00:50:21.958Z,14.35
2022-09-13T00:52:55.933Z,14.34
2022-09-13T00:55:32.022Z,14.31
2022-09-13T00:58:06.059Z,14.30
2022-09-13T01:00:32.799Z,14.30
2022-09-13T01:03:04.014Z,14.30
2022-09-13T01:05:38.613Z,14.30
2022-09-13T01:08:15.946Z,14.31
2022-09-13T01:10:44.762Z,14.32
2022-09-13T01:13:19.151Z,14.32
2022-09-13T01:15:46.688Z,14.34
2022-09-13T01:18:13.550Z,14.35
2022-09-13T01:20:55.015Z,14.36
2022-09-13T01:24:02.855Z,14.38
2022-09-13T01:26:56.769Z,14.38
2022-09-13T01:29:35.501Z,14.38
2022-09-13T01:32:24.693Z,14.36
2022-09-13T01:35:05.405Z,14.31
2022-09-13T01:37:56.587Z,14.28
2022-09-13T01:41:04.716Z,14.23
2022-09-13T01:43:48.798Z,14.20
2022-09-13T01:46:26.020Z,14.16
2022-09-13T01:49:08.412Z,14.15
2022-09-13T01:51:46.497Z,14.13
2022-09-13T01:54:31.357Z,14.11
2022-09-13T01:57:05.760Z,14.09
2022-09-13T01:59:50.583Z,14.07
2022-09-13T02:02:25.776Z,14.07
2022-09-13T02:05:31.708Z,14.07
2022-09-13T02:08:04.592Z,14.11
2022-09-13T02:10:37.968Z,14.16
2022-09-13T02:13:10.108Z,14.22
2022-09-13T02:15:41.657Z,14.31
2022-09-13T02:18:12.525Z,14.36
2022-09-13T02:20:44.173Z,14.41
2022-09-13T02:23:16.922Z,14.42
2022-09-13T02:25:46.253Z,14.42
2022-09-13T02:28:20.143Z,14.42
2022-09-13T02:30:51.672Z,14.44
2022-09-13T02:33:33.746Z,14.44
2022-09-13T02:36:10.568Z,14.44
2022-09-13T02:39:03.501Z,14.44
2022-09-13T02:41:41.725Z,14.45
2022-09-13T02:44:34.214Z,14.49
2022-09-13T02:47:07.895Z,14.53
2022-09-13T02:49:50.713Z,14.59
2022-09-13T02:52:43.581Z,14.66
2022-09-13T02:55:44.486Z,14.71
2022-09-13T02:58:28.730Z,14.80
2022-09-13T03:00:55.888Z,14.84
2022-09-13T03:03:22.630Z,14.89
2022-09-13T03:05:49.303Z,14.94
2022-09-13T03:08:18.291Z,14.99
2022-09-13T03:11:00.100Z,15.03
2022-09-13T03:13:30.150Z,15.10
2022-09-13T03:16:19.447Z,15.13
2022-09-13T03:19:22.996Z,15.16
2022-09-13T03:22:01.051Z,15.17
2022-09-13T03:24:42.790Z,15.19
2022-09-13T03:27:19.010Z,15.20
2022-09-13T03:30:02.240Z,15.26
2022-09-13T03:32:38.066Z,15.28
2022-09-13T03:35:16.421Z,15.29
2022-09-13T03:38:08.101Z,15.32
2022-09-13T03:40:49.765Z,15.31
2022-09-13T03:43:19.563Z,15.30
2022-09-13T03:45:53.565Z,15.30
2022-09-13T03:48:20.920Z,15.27
2022-09-13T03:50:50.087Z,15.26
2022-09-13T03:53:25.040Z,15.26
2022-09-13T03:55:52.158Z,15.27
2022-09-13T03:58:20.254Z,15.29
2022-09-13T04:00:47.377Z,15.30
2022-09-13T04:03:14.328Z,15.31
2022-09-13T04:05:41.217Z,15.31
2022-09-13T04:08:08.502Z,15.30
2022-09-13T04:10:36.513Z,15.32
2022-09-13T04:13:03.893Z,15.32
2022-09-13T04:15:31.285Z,15.34
2022-09-13T04:17:58.247Z,15.34
2022-09-13T04:20:25.788Z,15.36
2022-09-13T04:22:57.379Z,15.36
2022-09-13T04:25:24.797Z,15.39
2022-09-13T04:27:55.797Z,15.41
2022-09-13T04:30:23.351Z,15.41
2022-09-13T04:32:49.864Z,15.43
2022-09-13T04:35:17.948Z,15.45
2022-09-13T04:37:44.489Z,15.46
2022-09-13T04:40:11.303Z,15.48
2022-09-13T04:42:37.849Z,15.49
2022-09-13T04:45:04.801Z,15.50
2022-09-13T04:47:31.302Z,15.51
2022-09-13T04:49:57.905Z,15.53
2022-09-13T04:52:24.370Z,15.54
2022-09-13T04:54:50.831Z,15.56
2022-09-13T04:57:17.453Z,15.56
2022-09-13T04:59:43.910Z,15.58
2022-09-13T05:02:10.660Z,15.62
2022-09-13T05:04:37.248Z,15.61
2022-09-13T05:07:04.744Z,15.62
2022-09-13T05:09:32.155Z,15.62
2022-09-13T05:11:58.622Z,15.64
2022-09-13T05:14:25.083Z,15.67
2022-09-13T05:16:51.535Z,15.68
2022-09-13T05:19:18.198Z,15.71
2022-09-13T05:21:44.726Z,15.74
2022-09-13T05:24:11.916Z,15.76
2022-09-13T05:26:38.722Z,15.78
2022-09-13T05:29:05.506Z,15.81
2022-09-13T05:31:37.701Z,15.83
2022-09-13T05:34:07.246Z,15.86
2022-09-13T05:36:34.439Z,15.87
2022-09-13T05:39:28.579Z,15.90
2022-09-13T05:41:48.359Z,15.93
2022-09-13T05:44:14.921Z,15.95
2022-09-13T05:46:43.072Z,15.99
2022-09-13T05:49:12.448Z,16.06
2022-09-13T05:51:38.900Z,16.11
2022-09-13T05:54:05.395Z,16.15
2022-09-13T05:56:32.466Z,16.20
2022-09-13T05:58:59.185Z,16.24
2022-09-13T06:01:27.938Z,16.26
2022-09-13T06:03:57.107Z,16.27
2022-09-13T06:06:24.438Z,16.30
2022-09-13T06:08:55.131Z,16.34
2022-09-13T06:11:22.974Z,16.38
2022-09-13T06:13:50.234Z,16.41
2022-09-13T06:16:17.251Z,16.44
2022-09-13T06:18:44.098Z,16.44
2022-09-13T06:21:18.087Z,16.48
2022-09-13T06:23:50.973Z,16.53
2022-09-13T06:26:22.502Z,16.57
2022-09-13T06:28:51.354Z,16.58
2022-09-13T06:31:20.298Z,16.58
2022-09-13T06:33:47.007Z,16.62
2022-09-13T06:36:18.070Z,16.66
2022-09-13T06:38:46.559Z,16.70
2022-09-13T06:41:15.811Z,16.75
2022-09-13T06:43:42.454Z,16.78
2022-09-13T06:46:20.438Z,16.82
2022-09-13T06:48:48.829Z,16.85
2022-09-13T06:51:18.152Z,16.89
2022-09-13T06:53:45.821Z,16.97
2022-09-13T06:56:21.299Z,17.07
2022-09-13T06:58:50.305Z,17.15
2022-09-13T07:01:21.129Z,17.23
2022-09-13T07:03:50.219Z,17.32
2022-09-13T07:06:29.093Z,17.41
2022-09-13T07:08:57.451Z,17.44
2022-09-13T07:11:28.771Z,17.46
2022-09-13T07:13:57.623Z,17.55
2022-09-13T07:16:26.980Z,17.64
2022-09-13T07:18:55.648Z,17.72
2022-09-13T07:21:23.322Z,17.74
2022-09-13T07:23:51.932Z,17.80
2022-09-13T07:26:18.540Z,17.96
2022-09-13T07:28:47.307Z,18.02
2022-09-13T07:31:16.873Z,18.04
2022-09-13T07:33:44.712Z,18.16
2022-09-13T07:36:12.491Z,18.27
2022-09-13T07:38:41.277Z,18.32
2022-09-13T07:41:12.026Z,18.37
2022-09-13T07:43:39.138Z,18.40
2022-09-13T07:46:10.256Z,18.42
2022-09-13T07:48:39.448Z,18.44
2022-09-13T07:51:15.051Z,18.49
2022-09-13T07:53:43.137Z,18.56
2022-09-13T07:56:15.810Z,18.69
2022-09-13T07:58:44.262Z,18.83
2022-09-13T08:01:20.552Z,18.95
2022-09-13T08:04:01.136Z,19.06
2022-09-13T08:06:29.981Z,19.21
2022-09-13T08:08:56.702Z,19.35
2022-09-13T08:11:26.034Z,19.36
2022-09-13T08:13:53.552Z,19.33
2022-09-13T08:16:22.474Z,19.27
2022-09-13T08:18:51.564Z,19.22
2022-09-13T08:21:18.897Z,19.25
2022-09-13T08:23:46.122Z,19.25
2022-09-13T08:26:13.984Z,19.33
2022-09-13T08:28:42.198Z,19.37
2022-09-13T08:31:15.261Z,19.33
2022-09-13T08:33:47.306Z,19.22
2022-09-13T08:36:15.197Z,19.16
2022-09-13T08:38:48.749Z,19.21
2022-09-13T08:41:27.439Z,19.20
2022-09-13T08:44:03.242Z,19.30
2022-09-13T08:46:35.585Z,19.45
2022-09-13T08:49:07.483Z,19.42
2022-09-13T08:51:54.585Z,19.47
2022-09-13T08:54:21.383Z,19.56
2022-09-13T08:57:11.239Z,19.64
2022-09-13T08:59:51.877Z,19.67
2022-09-13T09:02:56.739Z,19.67
2022-09-13T09:05:26.894Z,19.75
2022-09-13T09:08:06.312Z,19.74
2022-09-13T09:10:47.181Z,19.77
2022-09-13T09:13:24.622Z,19.84
2022-09-13T09:16:25.032Z,19.96
2022-09-13T09:18:52.531Z,20.02
2022-09-13T09:21:19.056Z,19.99
2022-09-13T09:23:55.627Z,19.98
2022-09-13T09:26:29.071Z,19.98
2022-09-13T09:29:00.181Z,20.02
2022-09-13T09:31:58.960Z,20.20
2022-09-13T09:34:42.764Z,20.48
2022-09-13T09:37:26.033Z,20.71
2022-09-13T09:39:54.434Z,20.95
2022-09-13T09:42:25.493Z,21.12
2022-09-13T09:44:56.571Z,21.10
2022-09-13T09:47:29.419Z,21.12
2022-09-13T09:50:32.193Z,21.11
2022-09-13T09:53:24.192Z,21.29
2022-09-13T09:56:15.408Z,21.47
2022-09-13T09:58:45.153Z,21.37
2022-09-13T10:01:32.414Z,21.43
2022-09-13T10:04:27.404Z,21.46
2022-09-13T10:07:28.600Z,21.44
2022-09-13T10:10:05.413Z,21.27
2022-09-13T10:12:35.770Z,21.00
2022-09-13T10:15:18.207Z,20.77
2022-09-13T10:18:02.080Z,20.71
2022-09-13T10:20:29.385Z,20.90
2022-09-13T10:23:13.909Z,20.97
2022-09-13T10:25:47.237Z,21.01
2022-09-13T10:28:18.875Z,20.96
2022-09-13T10:30:57.529Z,20.86
2022-09-13T10:33:33.932Z,20.79
2022-09-13T10:36:13.993Z,20.75
2022-09-13T10:38:52.920Z,20.65
2022-09-13T10:41:26.258Z,20.67
2022-09-13T10:43:58.731Z,20.73
2022-09-13T10:46:27.328Z,20.78
2022-09-13T10:48:56.439Z,20.67
2022-09-13T10:51:34.359Z,20.61
2022-09-13T10:54:17.271Z,20.61
2022-09-13T10:56:44.177Z,20.66
2022-09-13T10:59:29.099Z,20.64
2022-09-13T11:02:26.404Z,20.69
2022-09-13T11:05:18.724Z,20.82
2022-09-13T11:08:12.888Z,20.80
2022-09-13T11:10:53.824Z,20.84
2022-09-13T11:13:26.535Z,20.85
2022-09-13T11:16:25.185Z,20.92
2022-09-13T11:18:57.704Z,21.05
2022-09-13T11:21:38.679Z,21.07
2022-09-13T11:24:23.235Z,21.03
2022-09-13T11:26:54.652Z,21.10
2022-09-13T11:29:48.442Z,21.24
2022-09-13T11:32:33.882Z,21.46
2022-09-13T11:35:35.985Z,21.47
2022-09-13T11:38:41.356Z,21.34
2022-09-13T11:41:23.989Z,21.21
2022-09-13T11:44:11.370Z,21.19
2022-09-13T11:46:52.029Z,21.20
2022-09-13T11:49:46.302Z,21.21
2022-09-13T11:52:42.322Z,21.37
2022-09-13T11:55:28.562Z,21.32
2022-09-13T11:58:37.545Z,21.39
2022-09-13T12:01:08.335Z,21.30
2022-09-13T12:03:52.557Z,21.15
2022-09-13T12:06:28.292Z,21.03
2022-09-13T12:09:00.538Z,21.00
2022-09-13T12:11:33.813Z,20.87
2022-09-13T12:14:05.201Z,20.71
2022-09-13T12:16:37.642Z,20.57
2022-09-13T12:19:22.666Z,20.53
2022-09-13T12:21:51.597Z,20.44
2022-09-13T12:24:30.813Z,20.30
2022-09-13T12:27:14.375Z,20.15
2022-09-13T12:29:50.352Z,20.06
2022-09-13T12:32:18.660Z,19.99
2022-09-13T12:34:59.642Z,19.97
2022-09-13T12:38:03.366Z,19.98
2022-09-13T12:40:51.528Z,20.05
2022-09-13T12:43:53.453Z,20.10
2022-09-13T12:46:49.164Z,20.02
2022-09-13T12:49:42.952Z,20.04
2022-09-13T12:52:35.656Z,20.11
2022-09-13T12:55:47.052Z,20.25
2022-09-13T12:58:44.972Z,20.54
2022-09-13T13:01:22.141Z,20.70
2022-09-13T13:03:54.808Z,20.79
2022-09-13T13:06:30.885Z,20.85
2022-09-13T13:09:01.654Z,20.84
2022-09-13T13:11:31.357Z,20.93
2022-09-13T13:14:02.226Z,20.92
2022-09-13T13:16:33.878Z,20.93
2022-09-13T13:19:23.764Z,21.01
2022-09-13T13:21:50.293Z,21.05
2022-09-13T13:24:16.756Z,20.97
2022-09-13T13:26:43.179Z,21.18
2022-09-13T13:29:30.473Z,21.37
2022-09-13T13:32:07.799Z,21.45
2022-09-13T13:34:42.303Z,21.67
2022-09-13T13:37:08.757Z,21.71
2022-09-13T13:39:43.200Z,21.68
2022-09-13T13:42:24.840Z,21.63
2022-09-13T13:45:05.423Z,21.44
2022-09-13T13:47:32.706Z,21.33
2022-09-13T13:50:19.661Z,21.37
2022-09-13T13:52:55.925Z,21.36
2022-09-13T13:55:41.155Z,21.49
2022-09-13T13:58:07.515Z,21.25
2022-09-13T14:00:36.524Z,21.13
2022-09-13T14:03:02.929Z,21.05
2022-09-13T14:05:53.812Z,21.17
2022-09-13T14:08:46.426Z,21.31
2022-09-13T14:11:58.097Z,21.42
2022-09-13T14:14:57.790Z,21.39
2022-09-13T14:17:52.203Z,21.33
2022-09-13T14:20:21.096Z,21.26
2022-09-13T14:22:48.015Z,21.26
2022-09-13T14:25:20.236Z,21.26
2022-09-13T14:27:48.598Z,21.17
2022-09-13T14:30:26.987Z,21.15
2022-09-13T14:32:58.320Z,21.12
2022-09-13T14:35:29.373Z,21.15
2022-09-13T14:38:09.508Z,21.24
2022-09-13T14:40:37.737Z,21.32
2022-09-13T14:43:19.467Z,21.39
2022-09-13T14:45:49.629Z,21.41
2022-09-13T14:48:28.420Z,21.44
2022-09-13T14:51:00.755Z,21.58
2022-09-13T14:53:32.559Z,21.61
2022-09-13T14:56:02.037Z,21.66
2022-09-13T14:58:52.918Z,21.70
2022-09-13T15:01:26.886Z,21.63
2022-09-13T15:03:57.021Z,21.57
2022-09-13T15:06:42.256Z,21.58
2022-09-13T15:09:11.616Z,21.67
2022-09-13T15:11:43.355Z,21.68
2022-09-13T15:14:12.568Z,21.66
2022-09-13T15:16:54.391Z,21.70
2022-09-13T15:19:23.784Z,21.78
2022-09-13T15:21:51.252Z,21.88
2022-09-13T15:24:29.423Z,21.85
2022-09-13T15:27:07.686Z,21.82
2022-09-13T15:29:37.577Z,21.87
2022-09-13T15:32:06.589Z,21.81
2022-09-13T15:34:33.095Z,21.73
2022-09-13T15:37:14.509Z,21.65
2022-09-13T15:39:49.548Z,21.72
2022-09-13T15:42:17.328Z,21.79
2022-09-13T15:44:44.055Z,21.71
2022-09-13T15:47:16.321Z,21.67
2022-09-13T15:49:50.175Z,21.58
2022-09-13T15:52:18.708Z,21.61
2022-09-13T15:54:48.016Z,21.54
2022-09-13T15:57:28.725Z,21.51
2022-09-13T15:59:56.803Z,21.61
2022-09-13T16:02:28.630Z,21.58
2022-09-13T16:04:55.631Z,21.67
2022-09-13T16:07:23.399Z,22.11
2022-09-13T16:09:50.536Z,22.66
2022-09-13T16:12:18.939Z,23.12
2022-09-13T16:14:46.352Z,23.60
2022-09-13T16:17:19.069Z,23.38
2022-09-13T16:19:45.618Z,23.24
2022-09-13T16:22:12.872Z,23.26
2022-09-13T16:24:39.709Z,23.40
2022-09-13T16:27:06.405Z,23.42
2022-09-13T16:29:32.935Z,23.84
2022-09-13T16:32:01.572Z,24.32
2022-09-13T16:34:28.091Z,25.06
2022-09-13T16:36:54.601Z,25.25
2022-09-13T16:39:21.679Z,25.32
2022-09-13T16:41:48.744Z,25.45
2022-09-13T16:44:16.106Z,25.62
2022-09-13T16:46:43.422Z,25.75
2022-09-13T16:49:10.559Z,25.62
2022-09-13T16:51:38.024Z,25.78
2022-09-13T16:54:05.069Z,25.28
2022-09-13T16:56:32.044Z,25.01
2022-09-13T16:58:58.534Z,24.38
2022-09-13T17:01:29.767Z,23.84
2022-09-13T17:03:57.436Z,23.35
2022-09-13T17:06:26.441Z,22.93
2022-09-13T17:08:57.151Z,22.56
2022-09-13T17:11:25.845Z,22.21
2022-09-13T17:13:52.744Z,21.89
2022-09-13T17:16:40.048Z,21.60
2022-09-13T17:19:12.339Z,21.33
2022-09-13T17:21:38.876Z,21.10
2022-09-13T17:24:08.986Z,20.90
2022-09-13T17:26:38.889Z,20.71
2022-09-13T17:29:05.637Z,20.53
2022-09-13T17:31:32.560Z,20.37
2022-09-13T17:33:59.141Z,20.21
2022-09-13T17:36:25.677Z,20.07
2022-09-13T17:38:56.835Z,19.90
2022-09-13T17:41:24.337Z,19.75
2022-09-13T17:43:50.955Z,19.62
2022-09-13T17:46:22.679Z,19.49
2022-09-13T17:48:51.815Z,19.37
2022-09-13T17:51:21.095Z,19.26
2022-09-13T17:53:54.065Z,19.11
2022-09-13T17:56:28.192Z,18.99
2022-09-13T17:58:54.651Z,18.89
2022-09-13T18:01:21.343Z,18.80
2022-09-13T18:03:48.255Z,18.70
2022-09-13T18:06:15.126Z,18.62
2022-09-13T18:08:42.224Z,18.52
2022-09-13T18:11:13.542Z,18.44
2022-09-13T18:13:42.792Z,18.36
2022-09-13T18:16:20.142Z,18.28
2022-09-13T18:18:48.053Z,18.21
2022-09-13T18:21:18.821Z,18.13
2022-09-13T18:23:47.612Z,18.04
2022-09-13T18:26:17.221Z,17.96
2022-09-13T18:28:44.854Z,17.88
2022-09-13T18:31:14.957Z,17.80
2022-09-13T18:33:42.388Z,17.73
2022-09-13T18:36:11.813Z,17.66
2022-09-13T18:38:40.740Z,17.57
2022-09-13T18:41:14.881Z,17.52
2022-09-13T18:43:43.080Z,17.49
2022-09-13T18:46:14.705Z,17.43
2022-09-13T18:48:46.346Z,17.38
2022-09-13T18:51:16.077Z,17.34
2022-09-13T18:53:43.879Z,17.27
2022-09-13T18:56:13.225Z,17.21
2022-09-13T18:58:41.257Z,17.16
2022-09-13T19:01:07.746Z,17.11
2022-09-13T19:03:35.755Z,17.06
2022-09-13T19:06:20.565Z,17.00
2022-09-13T19:08:48.714Z,16.93
2022-09-13T19:11:42.227Z,16.85
2022-09-13T19:14:03.809Z,16.78
2022-09-13T19:16:30.403Z,16.72
2022-09-13T19:18:56.967Z,16.68
2022-09-13T19:21:27.342Z,16.62
2022-09-13T19:24:00.328Z,16.61
2022-09-13T19:26:34.591Z,16.59
2022-09-13T19:29:06.506Z,16.56
2022-09-13T19:31:39.079Z,16.52
2022-09-13T19:34:06.902Z,16.48
2022-09-13T19:36:36.073Z,16.46
2022-09-13T19:39:04.898Z,16.44
2022-09-13T19:41:31.482Z,16.46
2022-09-13T19:44:00.649Z,16.47
2022-09-13T19:46:31.653Z,16.47
2022-09-13T19:49:00.778Z,16.47
2022-09-13T19:51:37.356Z,16.48
2022-09-13T19:54:05.727Z,16.49
2022-09-13T19:56:35.111Z,16.51
2022-09-13T19:59:02.296Z,16.53
2022-09-13T20:01:32.097Z,16.51
2022-09-13T20:04:01.220Z,16.48
2022-09-13T20:06:29.349Z,16.46
2022-09-13T20:08:59.983Z,16.43
2022-09-13T20:11:28.445Z,16.39
2022-09-13T20:13:56.372Z,16.34
2022-09-13T20:16:26.469Z,16.29
2022-09-13T20:18:53.074Z,16.24
2022-09-13T20:21:19.919Z,16.20
2022-09-13T20:23:47.052Z,16.16
2022-09-13T20:26:14.717Z,16.12
2022-09-13T20:28:41.864Z,16.09
2022-09-13T20:31:08.760Z,16.05
2022-09-13T20:33:36.187Z,15.99
2022-09-13T20:36:04.511Z,15.95
2022-09-13T20:38:31.053Z,15.93
2022-09-13T20:41:13.092Z,15.89
2022-09-13T20:43:41.178Z,15.85
2022-09-13T20:46:11.345Z,15.81
2022-09-13T20:48:38.089Z,15.76
2022-09-13T20:51:09.891Z,15.71
2022-09-13T20:53:37.761Z,15.66
2022-09-13T20:56:08.544Z,15.61
2022-09-13T20:58:36.028Z,15.54
2022-09-13T21:01:08.530Z,15.49
2022-09-13T21:03:36.825Z,15.43
2022-09-13T21:06:04.389Z,15.37
2022-09-13T21:08:43.366Z,15.31
2022-09-13T21:11:16.247Z,15.25
2022-09-13T21:13:48.710Z,15.18
2022-09-13T21:16:20.748Z,15.11
2022-09-13T21:18:47.771Z,15.05
2022-09-13T21:25:26.783Z,14.93
2022-09-13T21:27:53.231Z,14.91
2022-09-13T21:30:19.673Z,14.87
2022-09-13T21:32:46.080Z,14.82
2022-09-13T21:35:12.656Z,14.76
2022-09-13T21:37:39.170Z,14.71
2022-09-13T21:40:06.153Z,14.66
2022-09-13T21:42:33.147Z,14.62
2022-09-13T21:44:59.718Z,14.59
2022-09-13T21:47:26.323Z,14.55
2022-09-13T21:49:52.983Z,14.50
2022-09-13T21:52:19.803Z,14.46
2022-09-13T21:54:46.329Z,14.42
2022-09-13T21:57:12.791Z,14.36
2022-09-13T21:59:39.542Z,14.32
2022-09-13T22:02:06.107Z,14.28
2022-09-13T22:04:33.099Z,14.24
2022-09-13T22:07:00.495Z,14.20
2022-09-13T22:09:27.758Z,14.16
2022-09-13T22:11:55.256Z,14.12
2022-09-13T22:14:22.361Z,14.09
2022-09-13T22:16:50.095Z,14.05
2022-09-13T22:19:20.187Z,14.02
2022-09-13T22:21:48.559Z,13.99
2022-09-13T22:24:18.791Z,13.95
2022-09-13T22:26:47.690Z,13.92
2022-09-13T22:29:17.838Z,13.89
2022-09-13T22:31:46.573Z,13.85
2022-09-13T22:34:15.956Z,13.81
2022-09-13T22:36:43.062Z,13.78
2022-09-13T22:39:12.164Z,13.74
2022-09-13T22:41:39.776Z,13.70
2022-09-13T22:44:06.337Z,13.65
2022-09-13T22:46:38.403Z,13.61
2022-09-13T22:49:05.993Z,13.57
2022-09-13T22:51:33.244Z,13.53
2022-09-13T22:54:04.878Z,13.50
2022-09-13T22:56:35.497Z,13.48
2022-09-13T22:59:05.661Z,13.46
2022-09-13T23:01:32.663Z,13.41
2022-09-13T23:04:00.415Z,13.39
2022-09-13T23:06:28.359Z,13.37
2022-09-13T23:08:59.156Z,13.36
2022-09-13T23:11:28.552Z,13.33
2022-09-13T23:13:58.729Z,13.31
2022-09-13T23:16:27.774Z,13.29
2022-09-13T23:18:55.759Z,13.28
2022-09-13T23:21:25.467Z,13.26
2022-09-13T23:23:52.412Z,13.25
2022-09-13T23:26:20.996Z,13.26
2022-09-13T23:28:53.772Z,13.27
2022-09-13T23:31:22.591Z,13.28
2022-09-13T23:33:51.812Z,13.29
2022-09-13T23:36:21.631Z,13.27
2022-09-13T23:38:50.644Z,13.26
2022-09-13T23:41:18.231Z,13.27
2022-09-13T23:43:45.274Z,13.26
2022-09-13T23:46:12.627Z,13.25
2022-09-13T23:48:39.652Z,13.24
2022-09-13T23:51:09.411Z,13.23
2022-09-13T23:53:37.049Z,13.21
2022-09-13T23:56:05.934Z,13.20
2022-09-13T23:58:32.409Z,13.17
